Time;durP1;ratioP1;P1;durP2;ratioP2;P2;SDS_P1;SDS_P2;PMS_P1;PMS_P2;Temp;Humidity;BMP_temperature;BMP_pressure;BME280_temperature;BME280_humidity;BME280_pressure;Samples;Min_cycle;Max_cycle;Signal;HPM_P1;HPM_P2
2023/03/29 00:01:08;;;;;;;1.55;1.00;;;;;;;;;;12717421;23;20024;-84
2023/03/29 00:06:21;;;;;;;0.52;0.50;;;;;;;;;;12742554;23;20052;-84
2023/03/29 00:11:26;;;;;;;0.90;0.80;;;;;;;;;;12711278;23;20041;-84
2023/03/29 00:16:29;;;;;;;2.80;0.80;;;;;;;;;;12712426;23;20021;-83
2023/03/29 00:21:34;;;;;;;0.80;0.80;;;;;;;;;;12707542;23;20029;-84
2023/03/29 00:26:37;;;;;;;1.02;0.60;;;;;;;;;;12751841;23;20044;-80
2023/03/29 00:31:43;;;;;;;1.83;0.75;;;;;;;;;;12705115;23;20100;-83
2023/03/29 00:36:49;;;;;;;1.13;0.77;;;;;;;;;;12705078;23;20029;-83
2023/03/29 00:41:53;;;;;;;0.60;0.60;;;;;;;;;;12705144;23;20025;-83
2023/03/29 00:46:57;;;;;;;0.63;0.63;;;;;;;;;;12750553;23;20036;-84
2023/03/29 00:52:02;;;;;;;1.33;0.82;;;;;;;;;;12751164;23;20025;-83
2023/03/29 00:57:08;;;;;;;1.10;0.68;;;;;;;;;;12710256;23;20036;-83
2023/03/29 01:02:12;;;;;;;0.95;0.85;;;;;;;;;;12752860;23;20025;-84
2023/03/29 01:07:21;;;;;;;0.68;0.63;;;;;;;;;;12709825;23;20055;-84
2023/03/29 01:12:29;;;;;;;1.30;0.70;;;;;;;;;;12707615;23;20104;-83
2023/03/29 01:17:32;;;;;;;1.42;0.70;;;;;;;;;;12707873;23;20611;-83
2023/03/29 01:22:50;;;;;;;0.60;0.60;;;;;;;;;;12709042;23;20052;-84
2023/03/29 01:27:57;;;;;;;1.02;0.65;;;;;;;;;;12708239;23;20030;-84
2023/03/29 01:33:06;;;;;;;0.65;0.65;;;;;;;;;;12706715;23;20076;-84
2023/03/29 01:38:15;;;;;;;0.70;0.70;;;;;;;;;;12706314;23;20037;-84
2023/03/29 01:43:27;;;;;;;0.95;0.63;;;;;;;;;;12745800;23;20526;-84
2023/03/29 01:48:36;;;;;;;1.17;0.85;;;;;;;;;;12707179;23;20028;-84
2023/03/29 01:53:43;;;;;;;1.05;0.85;;;;;;;;;;12709486;23;20362;-83
2023/03/29 01:58:51;;;;;;;0.95;0.77;;;;;;;;;;12713273;23;20033;-84
2023/03/29 02:03:59;;;;;;;0.88;0.80;;;;;;;;;;12753516;23;20030;-83
2023/03/29 02:09:05;;;;;;;0.80;0.65;;;;;;;;;;12720884;23;20022;-83
2023/03/29 02:14:10;;;;;;;1.58;0.88;;;;;;;;;;12724724;23;20025;-83
2023/03/29 02:19:14;;;;;;;0.85;0.68;;;;;;;;;;12726636;23;20021;-83
2023/03/29 02:24:19;;;;;;;1.17;1.00;;;;;;;;;;12730025;23;20022;-84
2023/03/29 02:29:25;;;;;;;1.13;0.77;;;;;;;;;;12719048;23;20021;-83
2023/03/29 02:34:32;;;;;;;1.47;1.03;;;;;;;;;;12708983;23;20029;-83
2023/03/29 02:39:37;;;;;;;0.80;0.80;;;;;;;;;;12707837;23;20024;-84
2023/03/29 02:44:43;;;;;;;0.85;0.80;;;;;;;;;;12708242;23;20029;-83
2023/03/29 02:49:46;;;;;;;1.38;0.95;;;;;;;;;;12707562;23;20029;-83
2023/03/29 02:54:53;;;;;;;0.95;0.85;;;;;;;;;;12707925;23;20518;-83
2023/03/29 02:59:58;;;;;;;0.95;0.68;;;;;;;;;;12706263;23;20025;-84
2023/03/29 03:05:02;;;;;;;1.08;1.00;;;;;;;;;;12706903;23;20036;-84
2023/03/29 03:10:07;;;;;;;3.38;1.10;;;;;;;;;;12707008;23;20017;-84
2023/03/29 03:15:14;;;;;;;1.85;0.98;;;;;;;;;;12707174;23;20025;-83
2023/03/29 03:20:21;;;;;;;1.40;0.90;;;;;;;;;;12707883;23;20702;-83
2023/03/29 03:25:24;;;;;;;1.48;1.10;;;;;;;;;;12709996;23;20040;-82
2023/03/29 03:30:29;;;;;;;1.95;0.65;;;;;;;;;;12710065;23;20093;-83
2023/03/29 03:36:04;;;;;;;2.50;1.10;;;;;;;;;;12736339;23;20080;-84
2023/03/29 03:41:10;;;;;;;1.02;0.80;;;;;;;;;;12710718;23;20029;-83
2023/03/29 03:46:16;;;;;;;1.38;0.90;;;;;;;;;;12734984;23;20076;-83
2023/03/29 03:51:20;;;;;;;1.33;0.98;;;;;;;;;;12712405;23;20021;-84
2023/03/29 03:56:24;;;;;;;2.15;1.00;;;;;;;;;;12715700;23;20340;-83
2023/03/29 04:01:48;;;;;;;0.70;0.70;;;;;;;;;;12742484;23;20037;-84
2023/03/29 04:07:01;;;;;;;0.82;0.75;;;;;;;;;;12718543;23;20037;-84
2023/03/29 04:12:15;;;;;;;1.25;0.98;;;;;;;;;;12719872;23;20029;-84
2023/03/29 04:17:21;;;;;;;0.77;0.77;;;;;;;;;;12721094;23;20101;-82
2023/03/29 04:22:33;;;;;;;1.58;0.80;;;;;;;;;;12723370;23;20081;-83
2023/03/29 04:27:37;;;;;;;1.67;0.93;;;;;;;;;;12724459;23;20033;-83
2023/03/29 04:32:49;;;;;;;1.33;0.82;;;;;;;;;;12722965;23;20029;-83
2023/03/29 04:37:54;;;;;;;;;;;;;;;;;;12714817;23;20029;-83
2023/03/29 04:42:58;;;;;;;1.00;0.52;;;;;;;;;;12704971;23;20002;-83
2023/03/29 04:48:04;;;;;;;1.95;1.00;;;;;;;;;;12710311;23;20030;-82
2023/03/29 04:53:09;;;;;;;1.80;1.00;;;;;;;;;;12711808;23;20474;-82
2023/03/29 05:25:49;;;;;;;0.98;0.73;;;;;;;;;;12737674;22;20316;-85
2023/03/29 05:31:00;;;;;;;2.35;0.68;;;;;;;;;;12693596;23;20047;-85
2023/03/29 05:36:07;;;;;;;0.73;0.70;;;;;;;;;;12694212;23;20029;-85
2023/03/29 05:41:17;;;;;;;0.70;0.70;;;;;;;;;;12697461;23;20022;-85
2023/03/29 05:46:21;;;;;;;1.00;0.77;;;;;;;;;;12722488;23;20103;-85
2023/03/29 05:51:28;;;;;;;2.08;1.27;;;;;;;;;;12695754;23;20710;-85
2023/03/29 05:56:33;;;;;;;1.88;0.93;;;;;;;;;;12696587;23;20033;-83
2023/03/29 06:01:38;;;;;;;2.75;1.63;;;;;;;;;;12701741;23;20040;-85
2023/03/29 06:06:45;;;;;;;0.95;0.70;;;;;;;;;;12702019;23;20025;-83
2023/03/29 06:11:50;;;;;;;0.80;0.80;;;;;;;;;;12696118;23;20028;-85
2023/03/29 06:17:26;;;;;;;0.90;0.90;;;;;;;;;;12699546;23;20071;-86
2023/03/29 06:22:45;;;;;;;2.47;1.30;;;;;;;;;;12685596;23;20095;-85
2023/03/29 06:27:51;;;;;;;2.00;1.15;;;;;;;;;;12694017;23;20052;-85
2023/03/29 06:32:56;;;;;;;3.22;1.25;;;;;;;;;;12693237;23;20035;-85
2023/03/29 06:38:20;;;;;;;1.17;1.00;;;;;;;;;;12709492;23;20037;-85
2023/03/29 06:43:44;;;;;;;1.48;1.23;;;;;;;;;;12693934;23;20032;-86
2023/03/29 06:48:52;;;;;;;1.55;1.23;;;;;;;;;;12692737;23;20033;-84
2023/03/29 06:53:56;;;;;;;1.60;1.10;;;;;;;;;;12692952;23;20068;-85
2023/03/29 06:59:02;;;;;;;1.40;1.00;;;;;;;;;;12693673;23;20037;-85
2023/03/29 07:04:22;;;;;;;1.55;0.80;;;;;;;;;;12693018;23;20083;-85
2023/03/29 07:09:54;;;;;;;1.63;1.15;;;;;;;;;;12716725;23;20457;-85
2023/03/29 07:15:22;;;;;;;3.10;1.40;;;;;;;;;;12722626;23;20026;-85
2023/03/29 07:20:43;;;;;;;0.82;0.77;;;;;;;;;;12692332;23;20340;-85
2023/03/29 07:25:47;;;;;;;1.60;1.23;;;;;;;;;;12692458;23;20072;-86
2023/03/29 07:30:53;;;;;;;1.33;1.02;;;;;;;;;;12692162;23;20096;-85
2023/03/29 07:35:58;;;;;;;1.48;1.00;;;;;;;;;;12692261;23;20032;-86
2023/03/29 07:41:04;;;;;;;1.05;0.80;;;;;;;;;;12691213;23;20029;-85
2023/03/29 07:46:21;;;;;;;0.70;0.70;;;;;;;;;;12691890;23;20336;-87
2023/03/29 07:51:26;;;;;;;1.17;0.80;;;;;;;;;;12692322;23;20020;-85
2023/03/29 07:56:38;;;;;;;1.10;0.73;;;;;;;;;;12692607;23;20026;-86
2023/03/29 08:02:06;;;;;;;;;;;;;;;;;;12692525;23;20097;-85
2023/03/29 08:07:14;;;;;;;3.30;0.70;;;;;;;;;;12691222;23;19927;-86
2023/03/29 08:12:32;;;;;;;0.57;0.57;;;;;;;;;;12734263;23;20029;-86
2023/03/29 08:17:42;;;;;;;1.60;1.00;;;;;;;;;;12693052;23;20485;-87
2023/03/29 08:22:47;;;;;;;1.45;0.82;;;;;;;;;;12690836;23;20025;-86
2023/03/29 08:27:51;;;;;;;1.38;0.80;;;;;;;;;;12732418;23;20032;-85
2023/03/29 08:33:07;;;;;;;1.27;0.77;;;;;;;;;;12691344;23;20029;-86
2023/03/29 08:38:13;;;;;;;0.98;0.60;;;;;;;;;;12691494;23;20092;-84
2023/03/29 08:43:47;;;;;;;0.82;0.70;;;;;;;;;;12692350;23;20025;-83
2023/03/29 08:49:05;;;;;;;0.95;0.70;;;;;;;;;;12691626;23;20410;-85
2023/03/29 08:54:15;;;;;;;2.45;1.13;;;;;;;;;;12690439;23;20369;-84
2023/03/29 08:59:39;;;;;;;1.92;1.15;;;;;;;;;;12717781;23;20021;-84
2023/03/29 09:04:48;;;;;;;3.97;1.10;;;;;;;;;;12692096;23;20077;-85
2023/03/29 09:10:17;;;;;;;3.25;1.10;;;;;;;;;;12692515;23;20032;-83
2023/03/29 09:15:24;;;;;;;;;;;;;;;;;;12692475;23;20030;-84
2023/03/29 09:20:48;;;;;;;2.72;1.20;;;;;;;;;;12694085;23;19943;-85
2023/03/29 09:26:00;;;;;;;2.33;1.00;;;;;;;;;;12706298;23;20104;-89
2023/03/29 09:31:24;;;;;;;1.65;1.00;;;;;;;;;;12708166;23;20029;-87
2023/03/29 09:36:40;;;;;;;1.95;1.05;;;;;;;;;;12708964;23;20021;-86
2023/03/29 09:41:47;;;;;;;;;;;;;;;;;;12713759;23;20483;-90
2023/03/29 09:46:54;;;;;;;2.60;0.68;;;;;;;;;;12707501;23;20409;-88
2023/03/29 09:52:07;;;;;;;1.30;0.93;;;;;;;;;;12707026;23;20490;-86
2023/03/29 09:57:13;;;;;;;1.00;0.80;;;;;;;;;;12706982;23;20292;-86
2023/03/29 10:02:20;;;;;;;0.80;0.50;;;;;;;;;;12706931;23;20794;-86
2023/03/29 10:07:38;;;;;;;1.67;0.90;;;;;;;;;;12705843;23;20025;-86
2023/03/29 10:12:49;;;;;;;2.00;0.95;;;;;;;;;;12702399;23;20025;-87
2023/03/29 10:17:58;;;;;;;2.47;1.00;;;;;;;;;;12690612;23;20029;-83
2023/03/29 10:23:06;;;;;;;2.00;1.23;;;;;;;;;;12692008;23;20041;-84
2023/03/29 10:28:14;;;;;;;2.35;0.82;;;;;;;;;;12694377;23;20032;-85
2023/03/29 10:33:22;;;;;;;1.63;0.90;;;;;;;;;;12733002;23;20045;-85
2023/03/29 10:38:29;;;;;;;2.13;0.80;;;;;;;;;;12693665;23;20029;-85
2023/03/29 10:43:38;;;;;;;1.33;0.60;;;;;;;;;;12694881;23;20026;-85
2023/03/29 10:48:49;;;;;;;1.95;0.90;;;;;;;;;;12694317;23;20040;-86
2023/03/29 10:53:56;;;;;;;2.33;1.10;;;;;;;;;;12726688;23;20018;-86
2023/03/29 10:59:27;;;;;;;;;;;;;;;;;;12695133;23;20029;-85
2023/03/29 11:04:39;;;;;;;1.00;0.65;;;;;;;;;;12653758;23;19917;-85
2023/03/29 11:09:52;;;;;;;1.90;0.65;;;;;;;;;;12697236;23;20030;-85
2023/03/29 11:15:11;;;;;;;1.38;0.55;;;;;;;;;;12720616;23;20494;-85
2023/03/29 11:20:27;;;;;;;2.00;0.57;;;;;;;;;;12695255;23;20418;-85
2023/03/29 11:25:41;;;;;;;2.15;0.50;;;;;;;;;;12720517;23;20025;-85
2023/03/29 11:30:50;;;;;;;1.15;0.60;;;;;;;;;;12693666;23;20453;-85
2023/03/29 11:36:00;;;;;;;1.92;1.00;;;;;;;;;;12724784;23;20411;-86
2023/03/29 11:41:14;;;;;;;2.67;0.63;;;;;;;;;;12702517;23;20017;-84
2023/03/29 11:46:21;;;;;;;1.65;0.60;;;;;;;;;;12699464;23;20021;-84
2023/03/29 11:51:27;;;;;;;2.83;1.00;;;;;;;;;;12696022;23;20033;-83
2023/03/29 11:56:39;;;;;;;2.08;1.00;;;;;;;;;;12698913;23;20043;-84
2023/03/29 12:01:46;;;;;;;2.17;0.93;;;;;;;;;;12697384;23;20022;-84
2023/03/29 12:06:56;;;;;;;1.98;0.70;;;;;;;;;;12741056;23;20022;-81
2023/03/29 12:12:08;;;;;;;1.77;1.00;;;;;;;;;;12698384;23;20104;-81
2023/03/29 12:17:16;;;;;;;1.58;0.82;;;;;;;;;;12697959;23;20471;-82
2023/03/29 12:22:21;;;;;;;1.50;0.80;;;;;;;;;;12740888;23;20021;-81
2023/03/29 12:27:29;;;;;;;0.60;0.50;;;;;;;;;;12697621;23;20030;-80
2023/03/29 12:32:48;;;;;;;2.10;0.77;;;;;;;;;;12695980;23;20577;-80
2023/03/29 12:38:29;;;;;;;2.60;1.17;;;;;;;;;;12723610;23;20036;-81
2023/03/29 12:44:03;;;;;;;4.25;1.30;;;;;;;;;;12678115;23;20025;-80
2023/03/29 12:49:25;;;;;;;0.98;0.63;;;;;;;;;;12693589;23;20037;-82
2023/03/29 12:54:32;;;;;;;3.47;0.90;;;;;;;;;;12693922;23;20021;-82
2023/03/29 12:59:43;;;;;;;2.08;0.70;;;;;;;;;;12722236;23;20034;-82
2023/03/29 13:04:51;;;;;;;0.55;0.55;;;;;;;;;;12697846;23;20426;-82
2023/03/29 13:09:56;;;;;;;1.40;0.80;;;;;;;;;;12728874;23;20077;-82
2023/03/29 13:15:04;;;;;;;0.90;0.40;;;;;;;;;;12719124;23;20021;-82
2023/03/29 13:20:25;;;;;;;1.20;0.80;;;;;;;;;;12696699;23;20454;-84
2023/03/29 13:25:48;;;;;;;2.90;1.05;;;;;;;;;;12693412;23;20370;-83
2023/03/29 13:30:59;;;;;;;3.08;0.90;;;;;;;;;;12695625;23;20030;-84
2023/03/29 13:36:07;;;;;;;1.48;0.82;;;;;;;;;;12697566;23;20017;-84
2023/03/29 13:41:28;;;;;;;1.33;0.50;;;;;;;;;;12697227;23;20030;-84
2023/03/29 13:46:40;;;;;;;1.60;0.60;;;;;;;;;;12696728;23;20022;-84
2023/03/29 13:52:03;;;;;;;3.20;0.95;;;;;;;;;;12721211;23;20491;-82
2023/03/29 13:57:12;;;;;;;1.67;0.70;;;;;;;;;;12721091;23;20017;-82
2023/03/29 14:02:25;;;;;;;2.22;0.80;;;;;;;;;;12697939;23;20371;-81
2023/03/29 14:07:31;;;;;;;1.92;0.65;;;;;;;;;;12701436;23;20555;-88
2023/03/29 14:12:37;;;;;;;1.88;0.60;;;;;;;;;;12702073;23;20043;-84
2023/03/29 14:17:44;;;;;;;0.82;0.60;;;;;;;;;;12726464;23;20075;-84
2023/03/29 14:22:49;;;;;;;1.58;0.50;;;;;;;;;;12701834;23;20024;-84
2023/03/29 14:27:53;;;;;;;1.23;0.77;;;;;;;;;;12701548;23;20081;-84
2023/03/29 14:32:58;;;;;;;2.33;0.77;;;;;;;;;;12700907;23;20037;-86
2023/03/29 14:38:02;;;;;;;1.13;0.50;;;;;;;;;;12698992;23;20668;-84
2023/03/29 14:43:09;;;;;;;1.35;0.40;;;;;;;;;;12696854;23;20025;-88
2023/03/29 14:48:15;;;;;;;3.35;0.70;;;;;;;;;;12703650;23;20029;-86
2023/03/29 14:53:20;;;;;;;1.40;0.57;;;;;;;;;;12700627;23;20037;-90
2023/03/29 14:58:28;;;;;;;1.98;0.80;;;;;;;;;;12699613;23;20817;-87
2023/03/29 15:03:43;;;;;;;2.58;0.90;;;;;;;;;;12727148;23;20029;-85
2023/03/29 15:08:48;;;;;;;1.85;1.00;;;;;;;;;;12719605;23;20040;-84
2023/03/29 15:14:03;;;;;;;1.55;0.90;;;;;;;;;;12690899;23;20041;-84
2023/03/29 15:19:12;;;;;;;2.35;0.82;;;;;;;;;;12706188;23;20025;-84
2023/03/29 15:24:22;;;;;;;1.30;0.82;;;;;;;;;;12703835;23;20707;-83
2023/03/29 15:29:35;;;;;;;1.10;0.55;;;;;;;;;;12703825;23;20036;-84
2023/03/29 15:34:41;;;;;;;1.00;0.60;;;;;;;;;;12704956;23;20064;-83
2023/03/29 15:39:45;;;;;;;2.17;1.08;;;;;;;;;;12695866;23;20076;-84
2023/03/29 15:44:53;;;;;;;2.05;0.93;;;;;;;;;;12692729;23;20021;-83
2023/03/29 15:49:58;;;;;;;1.70;0.90;;;;;;;;;;12693104;23;20076;-84
2023/03/29 15:55:02;;;;;;;1.02;0.52;;;;;;;;;;12719682;23;20033;-84
2023/03/29 16:00:08;;;;;;;0.55;0.50;;;;;;;;;;12719602;23;20467;-84
2023/03/29 16:05:20;;;;;;;2.33;0.95;;;;;;;;;;12694752;23;20022;-84
2023/03/29 16:10:23;;;;;;;;;;;;;;;;;;12693965;23;20284;-84
2023/03/29 16:15:28;;;;;;;1.50;0.80;;;;;;;;;;12717717;23;19944;-84
2023/03/29 16:20:32;;;;;;;1.55;0.60;;;;;;;;;;12718854;23;20529;-83
2023/03/29 16:25:38;;;;;;;0.90;0.40;;;;;;;;;;12694436;23;20025;-84
2023/03/29 16:30:42;;;;;;;0.65;0.50;;;;;;;;;;12693610;23;20600;-83
2023/03/29 16:35:49;;;;;;;0.77;0.47;;;;;;;;;;12694189;23;20459;-84
2023/03/29 16:40:52;;;;;;;2.15;0.50;;;;;;;;;;12722649;23;20076;-84
2023/03/29 16:45:56;;;;;;;2.28;0.77;;;;;;;;;;12722387;23;20033;-84
2023/03/29 16:51:02;;;;;;;0.75;0.50;;;;;;;;;;12719859;23;20021;-83
2023/03/29 16:56:07;;;;;;;0.35;0.35;;;;;;;;;;12720944;23;20076;-84
2023/03/29 17:01:12;;;;;;;0.27;0.27;;;;;;;;;;12696911;23;20505;-84
2023/03/29 17:06:18;;;;;;;0.55;0.28;;;;;;;;;;12724377;23;20025;-84
2023/03/29 17:11:22;;;;;;;0.70;0.20;;;;;;;;;;12700201;23;20037;-83
2023/03/29 17:16:29;;;;;;;0.28;0.20;;;;;;;;;;12746683;23;20100;-84
2023/03/29 17:21:34;;;;;;;0.65;0.30;;;;;;;;;;12730695;23;20096;-84
2023/03/29 17:26:38;;;;;;;1.87;0.77;;;;;;;;;;12709000;23;20044;-84
2023/03/29 17:31:46;;;;;;;1.48;0.60;;;;;;;;;;12707644;23;20076;-84
2023/03/29 17:36:52;;;;;;;1.38;0.50;;;;;;;;;;12718956;23;20406;-84
2023/03/29 17:41:55;;;;;;;2.33;0.80;;;;;;;;;;12757567;23;20201;-83
2023/03/29 17:46:59;;;;;;;1.42;0.65;;;;;;;;;;12707234;23;20033;-83
2023/03/29 17:52:04;;;;;;;1.33;0.80;;;;;;;;;;12702404;23;20080;-83
2023/03/29 17:57:07;;;;;;;0.93;0.55;;;;;;;;;;12697136;23;20029;-83
2023/03/29 18:02:17;;;;;;;1.38;0.82;;;;;;;;;;12697325;23;20521;-84
2023/03/29 18:07:22;;;;;;;1.55;0.65;;;;;;;;;;12690275;23;20609;-83
2023/03/29 18:12:28;;;;;;;0.38;0.35;;;;;;;;;;12682449;23;20097;-84
2023/03/29 18:17:34;;;;;;;1.25;0.50;;;;;;;;;;12715899;23;20383;-84
2023/03/29 18:22:40;;;;;;;1.88;0.90;;;;;;;;;;12695835;23;20026;-84
2023/03/29 18:27:44;;;;;;;;;;;;;;;;;;12700574;23;20033;-83
2023/03/29 18:32:47;;;;;;;1.80;0.88;;;;;;;;;;12724759;23;20334;-82
2023/03/29 18:37:53;;;;;;;1.35;0.65;;;;;;;;;;12740856;23;20029;-82
2023/03/29 18:42:58;;;;;;;1.60;0.60;;;;;;;;;;12703398;23;20383;-82
2023/03/29 18:48:04;;;;;;;1.05;0.73;;;;;;;;;;12701691;23;20101;-81
2023/03/29 18:53:10;;;;;;;1.17;0.82;;;;;;;;;;12723809;23;20088;-82
2023/03/29 18:58:15;;;;;;;1.48;0.88;;;;;;;;;;12698054;23;20040;-82
2023/03/29 19:03:18;;;;;;;1.23;0.63;;;;;;;;;;12699046;23;20049;-82
2023/03/29 19:08:24;;;;;;;2.70;0.90;;;;;;;;;;12702308;23;20025;-81
2023/03/29 19:13:31;;;;;;;1.83;1.20;;;;;;;;;;12710171;23;20090;-82
2023/03/29 19:18:37;;;;;;;1.83;0.90;;;;;;;;;;12709358;23;20025;-81
2023/03/29 19:23:43;;;;;;;2.30;1.10;;;;;;;;;;12669981;23;20029;-82
2023/03/29 19:28:50;;;;;;;1.60;0.90;;;;;;;;;;12730062;23;20028;-82
2023/03/29 19:33:55;;;;;;;2.00;1.08;;;;;;;;;;12706980;23;20026;-82
2023/03/29 19:39:00;;;;;;;1.40;1.08;;;;;;;;;;12706768;23;20049;-82
2023/03/29 19:44:06;;;;;;;3.03;1.25;;;;;;;;;;12708349;23;20072;-82
2023/03/29 19:49:12;;;;;;;2.08;1.40;;;;;;;;;;12742531;23;20025;-81
2023/03/29 19:54:19;;;;;;;2.42;1.20;;;;;;;;;;12735528;23;20041;-84
2023/03/29 19:59:23;;;;;;;3.30;1.67;;;;;;;;;;12700424;23;20029;-85
2023/03/29 20:04:28;;;;;;;3.95;1.60;;;;;;;;;;12700661;23;20025;-85
2023/03/29 20:09:33;;;;;;;3.80;1.67;;;;;;;;;;12696734;23;20363;-84
2023/03/29 20:14:39;;;;;;;1.55;1.00;;;;;;;;;;12695883;23;20521;-84
2023/03/29 20:19:45;;;;;;;1.98;0.80;;;;;;;;;;12720861;23;20084;-84
2023/03/29 20:25:01;;;;;;;2.10;1.15;;;;;;;;;;12723258;23;20047;-84
2023/03/29 20:30:21;;;;;;;2.05;1.00;;;;;;;;;;12661024;23;20104;-84
2023/03/29 20:35:28;;;;;;;2.75;1.08;;;;;;;;;;12696613;23;20030;-84
2023/03/29 20:40:48;;;;;;;1.25;0.80;;;;;;;;;;12699815;23;20061;-84
2023/03/29 20:45:52;;;;;;;0.57;0.55;;;;;;;;;;12696626;23;20036;-84
2023/03/29 20:50:56;;;;;;;1.95;0.73;;;;;;;;;;12728381;23;20029;-84
2023/03/29 20:56:02;;;;;;;1.02;0.70;;;;;;;;;;12717553;23;20048;-84
2023/03/29 21:01:05;;;;;;;1.63;0.90;;;;;;;;;;12696912;23;20390;-82
2023/03/29 21:06:12;;;;;;;1.33;0.80;;;;;;;;;;12698905;23;20025;-84
2023/03/29 21:11:19;;;;;;;1.13;0.75;;;;;;;;;;12699573;23;20025;-83
2023/03/29 21:16:24;;;;;;;13.00;1.20;;;;;;;;;;12725557;23;20021;-84
2023/03/29 21:21:29;;;;;;;3.13;0.77;;;;;;;;;;12700073;23;20033;-84
2023/03/29 21:26:34;;;;;;;1.38;0.70;;;;;;;;;;12727488;23;20033;-83
2023/03/29 21:31:37;;;;;;;0.80;0.70;;;;;;;;;;12730054;23;20727;-85
2023/03/29 21:36:41;;;;;;;1.42;0.73;;;;;;;;;;12706785;23;20018;-83
2023/03/29 21:41:46;;;;;;;2.88;0.55;;;;;;;;;;12709605;23;20021;-84
2023/03/29 21:46:49;;;;;;;1.75;0.63;;;;;;;;;;12708913;23;20034;-85
2023/03/29 21:51:53;;;;;;;2.03;0.80;;;;;;;;;;12711076;23;20335;-84
2023/03/29 21:56:58;;;;;;;1.95;0.70;;;;;;;;;;12700948;23;20025;-84
2023/03/29 22:02:02;;;;;;;1.60;0.87;;;;;;;;;;12699989;23;20021;-84
2023/03/29 22:07:07;;;;;;;0.80;0.60;;;;;;;;;;12701644;23;20045;-84
2023/03/29 22:12:12;;;;;;;2.05;0.55;;;;;;;;;;12704709;23;20097;-85
2023/03/29 22:17:16;;;;;;;3.13;0.60;;;;;;;;;;12706947;23;20029;-85
2023/03/29 22:22:20;;;;;;;1.35;0.75;;;;;;;;;;12745801;23;20021;-84
2023/03/29 22:27:25;;;;;;;1.85;0.50;;;;;;;;;;12724517;23;20093;-83
2023/03/29 22:32:29;;;;;;;5.30;0.98;;;;;;;;;;12695837;23;20109;-82
2023/03/29 22:37:32;;;;;;;4.65;0.80;;;;;;;;;;12721337;23;20453;-82
2023/03/29 22:42:37;;;;;;;3.63;0.80;;;;;;;;;;12723460;23;20104;-83
2023/03/29 22:47:41;;;;;;;2.67;1.02;;;;;;;;;;12701249;23;20029;-81
2023/03/29 22:52:44;;;;;;;3.05;1.13;;;;;;;;;;12694949;23;20025;-82
2023/03/29 22:57:49;;;;;;;4.57;1.23;;;;;;;;;;12694464;23;20041;-83
2023/03/29 23:02:53;;;;;;;4.15;1.13;;;;;;;;;;12736026;23;20100;-84
2023/03/29 23:07:56;;;;;;;3.05;1.20;;;;;;;;;;12695501;23;20045;-81
2023/03/29 23:13:07;;;;;;;2.40;1.00;;;;;;;;;;12695205;23;20315;-84
2023/03/29 23:18:12;;;;;;;3.42;1.00;;;;;;;;;;12696366;23;20021;-84
2023/03/29 23:23:16;;;;;;;2.85;1.02;;;;;;;;;;12697800;23;20463;-85
2023/03/29 23:28:23;;;;;;;3.72;1.27;;;;;;;;;;12697510;23;20104;-85
2023/03/29 23:33:27;;;;;;;2.65;1.10;;;;;;;;;;12697361;23;20052;-84
2023/03/29 23:38:32;;;;;;;2.72;1.00;;;;;;;;;;12697424;23;20018;-84
2023/03/29 23:43:39;;;;;;;2.70;1.20;;;;;;;;;;12724190;23;20025;-84
2023/03/29 23:48:45;;;;;;;4.43;1.30;;;;;;;;;;12699246;23;20098;-84
2023/03/29 23:53:48;;;;;;;;;;;;;;;;;;12699322;23;20449;-84
2023/03/29 23:58:53;;;;;;;3.20;1.17;;;;;;;;;;12699333;23;19916;-84
